Time;durP1;ratioP1;P1;durP2;ratioP2;P2;SDS_P1;SDS_P2;PMS_P1;PMS_P2;Temp;Humidity;BMP_temperature;BMP_pressure;BME280_temperature;BME280_humidity;BME280_pressure;Samples;Min_cycle;Max_cycle;Signal;HPM_P1;HPM_P2
2022/03/04 00:01:46;;;;;;;24.53;15.40;;;;;;;2.54;58.84;101858.63;5031990;28;20029;-56
2022/03/04 00:04:15;;;;;;;26.80;15.57;;;;;;;2.52;59.05;101860.47;5031952;28;20053;-54
2022/03/04 00:06:40;;;;;;;26.60;15.97;;;;;;;2.47;59.58;101870.34;5031704;28;20049;-55
2022/03/04 00:09:05;;;;;;;27.23;15.83;;;;;;;2.41;59.54;101868.91;5031660;28;20198;-56
2022/03/04 00:11:32;;;;;;;26.27;15.30;;;;;;;2.41;59.69;101868.06;5031945;28;20065;-56
2022/03/04 00:13:57;;;;;;;27.07;14.57;;;;;;;2.33;59.65;101873.72;5032014;28;20437;-56
2022/03/04 00:16:24;;;;;;;25.00;15.10;;;;;;;2.29;59.87;101880.88;5031509;28;20072;-55
2022/03/04 00:19:06;;;;;;;25.77;15.90;;;;;;;2.23;59.70;101870.72;5032342;28;20030;-56
2022/03/04 00:21:32;;;;;;;26.63;15.83;;;;;;;2.18;60.32;101878.00;5031982;28;20104;-55
2022/03/04 00:23:57;;;;;;;25.77;15.77;;;;;;;2.13;60.42;101880.84;5031607;28;20513;-56
2022/03/04 00:26:23;;;;;;;25.27;15.70;;;;;;;2.13;60.52;101882.63;5031539;28;20033;-55
2022/03/04 00:28:48;;;;;;;27.97;16.20;;;;;;;2.09;60.22;101883.69;5031531;28;20568;-55
2022/03/04 00:31:13;;;;;;;26.43;15.57;;;;;;;2.08;60.80;101882.84;5031634;28;20033;-54
2022/03/04 00:33:38;;;;;;;27.73;16.27;;;;;;;1.98;60.43;101869.41;5031804;28;20037;-56
2022/03/04 00:36:05;;;;;;;28.27;16.30;;;;;;;1.97;60.51;101886.03;5031233;28;20041;-56
2022/03/04 00:38:30;;;;;;;25.77;15.97;;;;;;;1.98;61.64;101886.88;5035624;28;20092;-54
2022/03/04 00:40:55;;;;;;;30.00;16.40;;;;;;;1.97;61.04;101896.50;5042542;28;20041;-55
2022/03/04 00:43:20;;;;;;;26.80;15.73;;;;;;;1.92;61.06;101890.66;5030871;28;20041;-54
2022/03/04 00:45:46;;;;;;;26.20;16.43;;;;;;;1.94;62.79;101891.44;5034175;28;20585;-56
2022/03/04 00:48:11;;;;;;;28.10;16.90;;;;;;;1.89;62.14;101898.66;5035392;28;20465;-53
2022/03/04 00:50:36;;;;;;;29.03;16.97;;;;;;;1.87;63.27;101890.03;5033593;28;20068;-56
2022/03/04 00:53:02;;;;;;;27.13;15.57;;;;;;;1.79;61.57;101894.81;5031573;28;20087;-55
2022/03/04 00:55:28;;;;;;;27.60;16.57;;;;;;;1.81;62.08;101895.56;5031709;28;20037;-54
2022/03/04 00:57:53;;;;;;;29.70;17.10;;;;;;;1.78;61.82;101891.34;5031021;28;20079;-56
2022/03/04 01:00:18;;;;;;;29.17;16.90;;;;;;;1.74;62.14;101895.88;5030859;28;20094;-54
2022/03/04 01:02:43;;;;;;;28.27;16.93;;;;;;;1.73;62.18;101888.97;5031356;28;20037;-53
2022/03/04 01:05:09;;;;;;;28.00;16.53;;;;;;;1.70;62.76;101896.97;5031190;28;20037;-56
2022/03/04 01:07:34;;;;;;;28.50;17.37;;;;;;;1.70;62.51;101901.34;5032399;28;20056;-56
2022/03/04 01:09:59;;;;;;;29.83;16.60;;;;;;;1.66;62.85;101900.66;5034953;28;20025;-56
2022/03/04 01:12:25;;;;;;;27.47;16.87;;;;;;;1.63;62.82;101895.56;5035177;28;20037;-56
2022/03/04 01:14:51;;;;;;;31.33;17.73;;;;;;;1.61;62.52;101892.19;5034672;28;21669;-56
2022/03/04 01:17:17;;;;;;;27.00;16.83;;;;;;;1.57;63.21;101898.50;5034911;28;20448;-55
2022/03/04 01:19:42;;;;;;;31.67;17.47;;;;;;;1.52;63.02;101895.28;5034986;28;20037;-56
2022/03/04 01:22:07;;;;;;;27.53;17.27;;;;;;;1.44;63.41;101893.88;5034667;28;20503;-55
2022/03/04 01:24:33;;;;;;;27.80;16.63;;;;;;;1.47;63.34;101890.28;5034785;28;20143;-56
2022/03/04 01:26:58;;;;;;;28.83;17.50;;;;;;;1.39;63.46;101890.66;5034551;28;20029;-55
2022/03/04 01:29:23;;;;;;;27.63;17.17;;;;;;;1.38;63.87;101888.94;5034560;28;20061;-56
2022/03/04 01:31:48;;;;;;;28.03;17.50;;;;;;;1.31;63.88;101887.56;5034724;28;20431;-51
2022/03/04 01:34:14;;;;;;;29.53;17.90;;;;;;;1.31;64.26;101888.44;5034753;28;20459;-55
2022/03/04 01:36:39;;;;;;;27.37;17.47;;;;;;;1.23;63.90;101887.09;5034325;28;20040;-54
2022/03/04 01:39:04;;;;;;;27.63;16.97;;;;;;;1.25;64.43;101893.09;5034177;28;20039;-55
2022/03/04 01:41:30;;;;;;;28.40;18.20;;;;;;;1.21;64.54;101884.56;5034556;28;20095;-55
2022/03/04 01:43:55;;;;;;;28.40;17.27;;;;;;;1.14;64.74;101880.56;5034121;28;20435;-56
2022/03/04 01:46:28;;;;;;;29.87;18.23;;;;;;;1.12;64.58;101872.78;5034167;28;20036;-56
2022/03/04 01:48:54;;;;;;;27.60;17.27;;;;;;;1.16;64.64;101883.94;5034334;28;20021;-54
2022/03/04 01:51:19;;;;;;;27.83;17.60;;;;;;;1.09;64.83;101872.94;5032734;28;20116;-56
2022/03/04 01:53:44;;;;;;;30.87;18.70;;;;;;;1.08;65.32;101871.22;5033928;28;20108;-56
2022/03/04 01:56:10;;;;;;;29.23;17.80;;;;;;;1.04;65.24;101874.94;5032614;28;20068;-55
2022/03/04 01:58:35;;;;;;;29.70;18.10;;;;;;;0.94;65.10;101880.56;5034160;28;20036;-55
2022/03/04 02:01:00;;;;;;;30.20;17.87;;;;;;;0.91;65.10;101875.50;5035288;28;20364;-56
2022/03/04 02:03:26;;;;;;;30.53;18.87;;;;;;;0.86;65.15;101882.72;5035927;28;20029;-56
2022/03/04 02:05:51;;;;;;;28.97;18.20;;;;;;;0.84;66.00;101884.53;5033765;28;20508;-55
2022/03/04 02:08:17;;;;;;;34.10;18.70;;;;;;;0.76;66.09;101887.53;5036671;28;20426;-56
2022/03/04 02:10:42;;;;;;;28.93;18.60;;;;;;;0.75;66.41;101884.97;5033757;28;20025;-55
2022/03/04 02:13:07;;;;;;;30.60;18.53;;;;;;;0.72;66.87;101885.09;5037480;28;20029;-56
2022/03/04 02:15:33;;;;;;;30.70;18.93;;;;;;;0.73;66.84;101897.28;5034582;28;20030;-56
2022/03/04 02:17:58;;;;;;;29.97;18.97;;;;;;;0.66;66.71;101892.34;5050296;28;20025;-55
2022/03/04 02:20:23;;;;;;;30.23;18.37;;;;;;;0.66;66.93;101892.34;5036742;28;20104;-55
2022/03/04 02:22:50;;;;;;;30.80;18.70;;;;;;;0.64;67.02;101888.94;5033131;28;20033;-55
2022/03/04 02:25:15;;;;;;;31.13;19.47;;;;;;;0.56;67.04;101885.84;5033344;28;20032;-55
2022/03/04 02:27:41;;;;;;;29.73;19.17;;;;;;;0.57;67.65;101881.44;5031840;28;20025;-55
2022/03/04 02:30:06;;;;;;;32.97;19.13;;;;;;;0.52;67.21;101884.28;5032394;28;20056;-53
2022/03/04 02:32:32;;;;;;;30.23;19.53;;;;;;;0.50;67.02;101878.28;5033225;28;20026;-55
2022/03/04 02:34:57;;;;;;;32.03;19.60;;;;;;;0.49;68.00;101876.59;5033038;28;20021;-55
2022/03/04 02:37:23;;;;;;;30.23;19.17;;;;;;;0.47;67.40;101881.00;5033483;28;20500;-53
2022/03/04 02:39:50;;;;;;;36.67;19.73;;;;;;;0.45;68.22;101877.63;5032702;28;20484;-53
2022/03/04 02:42:16;;;;;;;32.43;20.03;;;;;;;0.40;67.93;101868.25;5033324;28;20432;-55
2022/03/04 02:44:41;;;;;;;32.70;19.50;;;;;;;0.37;68.04;101871.00;5032871;28;20029;-56
2022/03/04 02:47:07;;;;;;;31.73;19.90;;;;;;;0.37;67.65;101873.63;5032408;28;20025;-54
2022/03/04 02:49:32;;;;;;;30.47;19.27;;;;;;;0.33;67.89;101874.66;5032709;28;20036;-55
2022/03/04 02:51:57;;;;;;;33.73;20.10;;;;;;;0.31;68.50;101866.06;5032798;28;20029;-55
2022/03/04 02:54:22;;;;;;;35.83;20.30;;;;;;;0.28;68.47;101871.41;5032720;28;20032;-55
2022/03/04 02:56:48;;;;;;;33.63;19.77;;;;;;;0.30;67.89;101869.56;5032851;28;20033;-56
2022/03/04 02:59:13;;;;;;;34.40;19.97;;;;;;;0.27;68.71;101864.50;5032283;28;20032;-54
2022/03/04 03:01:38;;;;;;;33.03;20.00;;;;;;;0.27;68.27;101869.72;5030195;28;20030;-54
2022/03/04 03:04:04;;;;;;;32.57;19.77;;;;;;;0.26;68.68;101868.03;5031105;28;20411;-55
2022/03/04 03:06:29;;;;;;;32.20;20.30;;;;;;;0.29;68.25;101869.66;5031993;28;20481;-55
2022/03/04 03:08:54;;;;;;;32.40;20.43;;;;;;;0.26;68.00;101868.03;5032170;28;20036;-56
2022/03/04 03:11:20;;;;;;;36.90;21.83;;;;;;;0.26;68.30;101874.06;5031275;28;20033;-55
2022/03/04 03:13:45;;;;;;;32.60;20.57;;;;;;;0.30;68.45;101874.78;5031794;28;20092;-56
2022/03/04 03:16:11;;;;;;;33.17;20.40;;;;;;;0.25;68.26;101868.94;5028230;28;20045;-55
2022/03/04 03:18:36;;;;;;;33.37;21.03;;;;;;;0.27;68.52;101864.50;5027122;28;20107;-55
2022/03/04 03:21:01;;;;;;;34.77;20.90;;;;;;;0.27;67.64;101864.50;5031326;28;20373;-55
2022/03/04 03:23:27;;;;;;;32.27;21.07;;;;;;;0.30;68.20;101871.34;5023951;28;20034;-55
2022/03/04 03:25:52;;;;;;;37.67;21.90;;;;;;;0.28;68.28;101860.97;5031243;28;20060;-55
2022/03/04 03:28:17;;;;;;;33.00;20.50;;;;;;;0.30;67.96;101864.34;5031749;28;20041;-56
2022/03/04 03:30:42;;;;;;;36.53;21.00;;;;;;;0.28;67.81;101868.81;5031067;28;20041;-55
2022/03/04 03:33:08;;;;;;;35.93;21.13;;;;;;;0.24;68.43;101868.09;5030785;28;20128;-55
2022/03/04 03:35:33;;;;;;;34.73;20.80;;;;;;;0.23;68.00;101871.63;5031780;28;20045;-55
2022/03/04 03:37:59;;;;;;;34.43;21.43;;;;;;;0.22;68.50;101871.69;5030852;28;20068;-55
2022/03/04 03:40:24;;;;;;;34.93;21.63;;;;;;;0.16;68.54;101871.97;5032513;28;20575;-55
2022/03/04 03:42:49;;;;;;;35.20;21.37;;;;;;;0.20;68.67;101879.56;5032460;28;20045;-53
2022/03/04 03:45:15;;;;;;;36.17;21.80;;;;;;;0.18;68.51;101880.56;5032068;28;20448;-55
2022/03/04 03:47:41;;;;;;;41.63;22.47;;;;;;;0.19;68.69;101879.66;5032384;28;20464;-56
2022/03/04 03:50:09;;;;;;;37.17;21.73;;;;;;;0.16;68.29;101877.16;5032281;28;20037;-56
2022/03/04 03:52:35;;;;;;;35.17;20.43;;;;;;;0.15;68.30;101871.09;5032143;28;20026;-56
2022/03/04 03:55:00;;;;;;;36.73;22.57;;;;;;;0.11;68.61;101875.59;5032060;28;20021;-56
2022/03/04 03:57:25;;;;;;;37.57;21.63;;;;;;;0.16;68.81;101871.97;5031933;28;20426;-54
2022/03/04 03:59:51;;;;;;;35.73;22.23;;;;;;;0.12;68.61;101872.09;5032127;28;20206;-55
2022/03/04 04:02:16;;;;;;;35.43;21.93;;;;;;;0.10;68.86;101881.75;5031706;28;20067;-55
2022/03/04 04:04:41;;;;;;;35.87;21.50;;;;;;;0.08;68.79;101875.75;5031332;28;20037;-56
2022/03/04 04:07:09;;;;;;;35.57;21.73;;;;;;;0.05;68.88;101881.09;5031819;28;20521;-54
2022/03/04 04:09:34;;;;;;;36.70;22.07;;;;;;;0.05;68.38;101891.53;5031423;28;20022;-56
2022/03/04 04:11:59;;;;;;;37.73;22.67;;;;;;;0.04;68.82;101883.78;5031082;28;20037;-54
2022/03/04 04:14:25;;;;;;;37.23;22.20;;;;;;;0.03;69.02;101885.53;5032551;28;20037;-54
2022/03/04 04:16:51;;;;;;;37.87;22.47;;;;;;;-0.01;69.16;101892.66;5031371;28;20030;-55
2022/03/04 04:19:16;;;;;;;40.20;21.90;;;;;;;-0.03;68.78;101893.63;5029827;28;20065;-54
2022/03/04 04:21:42;;;;;;;34.70;21.20;;;;;;;-0.03;69.36;101898.84;5031413;28;20029;-55
2022/03/04 04:24:07;;;;;;;35.27;21.40;;;;;;;-0.04;69.20;101897.16;5031635;28;20044;-54
2022/03/04 04:26:32;;;;;;;39.10;23.03;;;;;;;-0.06;68.83;101891.13;5030002;28;20380;-55
2022/03/04 04:28:57;;;;;;;39.53;23.40;;;;;;;-0.06;69.53;101896.34;5031058;28;20037;-55
2022/03/04 04:31:23;;;;;;;38.00;22.67;;;;;;;-0.07;69.70;101897.28;5030147;28;20443;-55
2022/03/04 04:33:49;;;;;;;38.17;22.80;;;;;;;-0.08;69.58;101896.44;5031424;28;20032;-52
2022/03/04 04:36:14;;;;;;;39.57;22.57;;;;;;;-0.09;69.36;101899.09;5031485;28;20587;-53
2022/03/04 04:38:40;;;;;;;37.87;22.40;;;;;;;-0.10;69.40;101898.25;5035935;28;20109;-53
2022/03/04 04:41:06;;;;;;;40.67;22.20;;;;;;;-0.11;69.40;101903.56;5031129;28;20036;-55
2022/03/04 04:43:31;;;;;;;37.80;22.83;;;;;;;-0.14;69.36;101902.75;5032878;28;20130;-56
2022/03/04 04:45:57;;;;;;;36.73;23.07;;;;;;;-0.14;69.59;101907.97;5035186;28;20068;-54
2022/03/04 04:48:22;;;;;;;37.83;22.90;;;;;;;-0.13;69.75;101908.81;5034750;28;20462;-53
2022/03/04 04:50:47;;;;;;;40.47;23.23;;;;;;;-0.18;69.95;101911.63;5034924;28;20034;-54
2022/03/04 04:53:13;;;;;;;37.17;21.77;;;;;;;-0.19;70.34;101914.31;5034529;28;20495;-53
2022/03/04 04:55:38;;;;;;;37.23;22.40;;;;;;;-0.26;69.86;101900.66;5034909;28;20036;-54
2022/03/04 04:58:04;;;;;;;35.43;21.90;;;;;;;-0.20;70.00;101907.41;5034577;28;20037;-55
2022/03/04 05:00:29;;;;;;;36.00;22.57;;;;;;;-0.22;69.27;101911.81;5032940;28;20045;-55
2022/03/04 05:02:54;;;;;;;38.63;23.50;;;;;;;-0.23;70.09;101908.38;5034427;28;20388;-55
2022/03/04 05:05:20;;;;;;;40.00;23.50;;;;;;;-0.25;70.47;101902.34;5034029;28;20033;-55
2022/03/04 05:07:46;;;;;;;40.10;22.70;;;;;;;-0.27;70.07;101901.56;5032680;28;20049;-54
2022/03/04 05:10:12;;;;;;;37.87;23.27;;;;;;;-0.27;70.05;101893.75;5034963;28;20036;-55
2022/03/04 05:12:38;;;;;;;39.10;23.63;;;;;;;-0.30;69.98;101891.28;5035255;28;20034;-51
2022/03/04 05:15:05;;;;;;;40.07;23.60;;;;;;;-0.29;70.51;101898.19;5029136;28;20470;-53
2022/03/04 05:17:30;;;;;;;38.03;23.67;;;;;;;-0.34;70.20;101900.16;5023490;28;20060;-53
2022/03/04 05:19:55;;;;;;;44.13;23.27;;;;;;;-0.35;70.53;101893.25;5031445;28;20038;-54
2022/03/04 05:22:20;;;;;;;43.20;24.27;;;;;;;-0.37;70.44;101900.25;5044962;28;20033;-54
2022/03/04 05:24:46;;;;;;;41.17;22.80;;;;;;;-0.37;70.59;101905.47;5033585;28;20040;-55
2022/03/04 05:27:11;;;;;;;39.00;23.43;;;;;;;-0.38;70.55;101896.81;5034762;28;20072;-54
2022/03/04 05:29:36;;;;;;;39.53;24.00;;;;;;;-0.47;70.24;101895.44;5034272;28;20487;-54
2022/03/04 05:32:02;;;;;;;42.07;23.53;;;;;;;-0.44;70.75;101908.34;5038035;28;20057;-55
2022/03/04 05:34:27;;;;;;;37.10;22.83;;;;;;;-0.42;70.46;101903.94;5034159;28;20041;-55
2022/03/04 05:36:53;;;;;;;39.47;22.93;;;;;;;-0.45;70.04;101904.03;5034864;28;20075;-54
2022/03/04 05:39:19;;;;;;;36.67;22.37;;;;;;;-0.46;70.55;101907.56;5033799;28;20472;-53
2022/03/04 05:41:44;;;;;;;36.50;22.53;;;;;;;-0.45;70.46;101909.25;5034503;28;20036;-55
2022/03/04 05:44:10;;;;;;;38.87;23.20;;;;;;;-0.49;70.42;101912.88;5033681;28;20076;-56
2022/03/04 05:46:35;;;;;;;40.67;22.23;;;;;;;-0.50;70.90;101916.41;5032783;28;20057;-54
2022/03/04 05:49:00;;;;;;;37.67;22.70;;;;;;;-0.53;70.73;101926.97;5033716;28;20457;-55
2022/03/04 05:51:26;;;;;;;36.47;21.97;;;;;;;-0.55;70.50;101924.41;5033420;28;20028;-53
2022/03/04 05:53:51;;;;;;;39.00;22.93;;;;;;;-0.57;70.82;101920.16;5033575;28;20033;-54
2022/03/04 05:56:17;;;;;;;35.97;23.03;;;;;;;-0.56;70.86;101929.69;5033976;28;20033;-56
2022/03/04 05:58:43;;;;;;;38.57;22.33;;;;;;;-0.56;70.99;101932.28;5033735;28;20471;-51
2022/03/04 06:01:08;;;;;;;36.87;22.33;;;;;;;-0.56;70.93;101937.50;5033694;28;20472;-55
2022/03/04 06:03:35;;;;;;;38.83;22.63;;;;;;;-0.55;71.10;101933.97;5033763;28;20112;-55
2022/03/04 06:06:00;;;;;;;39.03;22.30;;;;;;;-0.56;70.96;101942.72;5033351;28;20148;-55
2022/03/04 06:08:26;;;;;;;39.83;23.67;;;;;;;-0.57;71.23;101939.28;5031891;28;20093;-51
2022/03/04 06:10:51;;;;;;;38.23;22.80;;;;;;;-0.59;71.17;101941.06;5033742;28;20492;-55
2022/03/04 06:13:17;;;;;;;42.13;24.03;;;;;;;-0.63;70.95;101941.25;5033073;28;20025;-54
2022/03/04 06:15:42;;;;;;;43.07;23.93;;;;;;;-0.63;71.28;101949.94;5032851;28;20049;-57
2022/03/04 06:18:07;;;;;;;37.47;23.13;;;;;;;-0.62;71.18;101948.16;5027882;28;20029;-54
2022/03/04 06:20:33;;;;;;;43.33;23.97;;;;;;;-0.64;71.41;101939.56;5036816;28;20037;-55
2022/03/04 06:22:59;;;;;;;40.53;23.13;;;;;;;-0.63;71.42;101947.34;5034611;28;20116;-56
2022/03/04 06:25:25;;;;;;;39.97;22.90;;;;;;;-0.65;71.32;101953.50;5049509;28;20037;-55
2022/03/04 06:27:58;;;;;;;38.27;23.57;;;;;;;-0.69;71.31;101951.00;5034478;28;20104;-51
2022/03/04 06:30:25;;;;;;;40.37;23.07;;;;;;;-0.69;71.54;101951.00;5031725;28;20049;-55
2022/03/04 06:32:51;;;;;;;41.13;23.37;;;;;;;-0.69;71.31;101948.41;5028970;28;20064;-55
2022/03/04 06:35:17;;;;;;;39.97;23.33;;;;;;;-0.69;71.84;101948.41;5022022;28;20488;-56
2022/03/04 06:37:43;;;;;;;39.70;23.00;;;;;;;-0.69;71.57;101953.63;5024870;28;20038;-56
2022/03/04 06:40:09;;;;;;;39.33;22.43;;;;;;;-0.71;71.65;101955.44;5026966;28;20025;-55
2022/03/04 06:42:35;;;;;;;38.93;22.90;;;;;;;-0.66;71.89;101954.44;5022483;28;20047;-54
2022/03/04 06:45:01;;;;;;;37.03;22.20;;;;;;;-0.66;71.77;101957.03;5018747;28;20034;-54
2022/03/04 06:47:26;;;;;;;37.17;23.13;;;;;;;-0.68;71.84;101960.53;5032636;28;20087;-56
2022/03/04 06:49:52;;;;;;;40.30;23.07;;;;;;;-0.63;71.94;101964.72;5032830;28;20338;-54
2022/03/04 06:52:17;;;;;;;39.90;23.07;;;;;;;-0.65;72.08;101964.75;5030179;28;20311;-53
2022/03/04 06:54:43;;;;;;;39.03;23.00;;;;;;;-0.61;71.78;101970.69;5026725;28;20057;-53
2022/03/04 06:57:08;;;;;;;39.37;23.17;;;;;;;-0.60;71.93;101973.25;5024321;28;20032;-55
2022/03/04 06:59:33;;;;;;;38.77;22.67;;;;;;;-0.58;71.96;101970.59;5024452;28;20033;-58
2022/03/04 07:02:00;;;;;;;39.30;23.17;;;;;;;-0.58;71.96;101976.63;5024083;28;20038;-57
2022/03/04 07:04:25;;;;;;;37.07;22.97;;;;;;;-0.51;72.29;101982.47;5024698;28;20091;-56
2022/03/04 07:06:51;;;;;;;39.03;24.00;;;;;;;-0.46;72.25;101985.75;5020063;28;20045;-58
2022/03/04 07:09:17;;;;;;;41.20;23.00;;;;;;;-0.43;71.93;101996.03;5029766;28;20029;-57
2022/03/04 07:11:42;;;;;;;42.13;23.00;;;;;;;-0.38;71.98;101997.63;5026483;28;20030;-57
2022/03/04 07:14:08;;;;;;;37.90;22.73;;;;;;;-0.34;71.42;102004.41;5031868;28;20541;-58
2022/03/04 07:16:33;;;;;;;41.00;23.43;;;;;;;-0.32;71.28;101997.38;5032325;28;20025;-58
2022/03/04 07:18:58;;;;;;;36.50;22.53;;;;;;;-0.28;71.26;102007.59;5028346;28;20028;-57
2022/03/04 07:21:23;;;;;;;40.07;23.73;;;;;;;-0.21;71.49;102015.16;5032696;28;20571;-58
2022/03/04 07:23:49;;;;;;;40.17;23.50;;;;;;;-0.16;71.29;102013.22;5032614;28;20021;-58
2022/03/04 07:26:14;;;;;;;37.87;22.67;;;;;;;-0.10;71.06;102009.53;5025178;28;20056;-57
2022/03/04 07:28:39;;;;;;;37.80;22.37;;;;;;;-0.04;70.92;102011.91;5030166;28;20026;-57
2022/03/04 07:31:05;;;;;;;38.47;22.83;;;;;;;0.01;70.88;102014.31;5030795;28;20025;-58
2022/03/04 07:33:30;;;;;;;36.73;22.07;;;;;;;0.05;71.46;102015.88;5026732;28;20029;-57
2022/03/04 07:35:56;;;;;;;39.50;22.43;;;;;;;0.08;71.27;102011.38;5026379;28;20168;-58
2022/03/04 07:38:21;;;;;;;37.93;22.63;;;;;;;0.17;71.13;102006.69;5025213;28;20037;-57
2022/03/04 07:40:46;;;;;;;38.47;22.93;;;;;;;0.25;71.11;102012.44;5021750;28;20108;-58
2022/03/04 07:43:11;;;;;;;40.43;22.83;;;;;;;0.33;70.78;102009.50;5021215;28;20037;-58
2022/03/04 07:45:37;;;;;;;42.97;22.70;;;;;;;0.39;70.22;102010.09;5020805;28;20403;-58
2022/03/04 07:48:02;;;;;;;40.13;23.13;;;;;;;0.47;70.29;102003.69;5024679;28;20033;-58
2022/03/04 07:50:28;;;;;;;35.70;22.63;;;;;;;0.56;70.15;102005.91;5021216;28;20045;-59
2022/03/04 07:52:53;;;;;;;36.60;22.23;;;;;;;0.64;70.08;102011.63;5025935;28;20032;-58
2022/03/04 07:55:18;;;;;;;37.63;21.93;;;;;;;0.72;69.10;102013.03;5029846;28;20057;-57
2022/03/04 07:57:44;;;;;;;38.57;22.97;;;;;;;0.78;69.14;102012.78;5033949;28;20037;-58
2022/03/04 08:00:13;;;;;;;39.63;23.03;;;;;;;0.85;69.10;102010.75;5033858;28;20045;-59
2022/03/04 08:02:39;;;;;;;37.67;23.10;;;;;;;0.94;69.36;102021.63;5032433;28;20466;-58
2022/03/04 08:05:08;;;;;;;37.97;22.60;;;;;;;1.05;68.92;102012.47;5037115;28;20430;-58
2022/03/04 08:07:34;;;;;;;39.07;22.73;;;;;;;1.12;68.28;102016.47;5037126;28;20053;-58
2022/03/04 08:09:59;;;;;;;38.73;22.00;;;;;;;1.19;67.85;102017.88;5043825;28;20040;-58
2022/03/04 08:12:25;;;;;;;37.23;22.20;;;;;;;1.25;67.86;102014.16;5029667;28;20401;-57
2022/03/04 08:14:51;;;;;;;37.03;22.70;;;;;;;1.34;67.60;102018.13;5039137;28;20021;-57
2022/03/04 08:17:16;;;;;;;39.00;22.40;;;;;;;1.41;67.29;102023.88;5043426;28;20043;-58
2022/03/04 08:19:41;;;;;;;38.47;22.33;;;;;;;1.48;67.39;102025.28;5035145;28;20038;-57
2022/03/04 08:22:07;;;;;;;35.93;21.63;;;;;;;1.55;66.81;102020.63;5035179;28;20033;-57
2022/03/04 08:24:32;;;;;;;37.03;21.83;;;;;;;1.60;66.82;102023.88;5036729;28;20033;-58
2022/03/04 08:26:58;;;;;;;35.43;21.57;;;;;;;1.67;66.40;102020.03;5035745;28;20040;-58
2022/03/04 08:29:23;;;;;;;36.00;21.87;;;;;;;1.74;65.72;102026.66;5038466;28;20041;-58
2022/03/04 08:31:48;;;;;;;41.10;22.10;;;;;;;1.79;64.84;102023.84;5036722;28;20044;-58
2022/03/04 08:34:13;;;;;;;35.80;21.23;;;;;;;1.86;64.92;102029.59;5037634;28;20025;-58
2022/03/04 08:36:39;;;;;;;38.33;21.60;;;;;;;1.96;64.79;102027.38;5037315;28;20036;-59
2022/03/04 08:39:05;;;;;;;37.07;22.23;;;;;;;2.04;64.55;102033.09;5033118;28;20345;-57
2022/03/04 08:41:32;;;;;;;35.50;22.07;;;;;;;2.11;64.67;102028.38;5034460;28;20077;-57
2022/03/04 08:43:58;;;;;;;35.13;21.67;;;;;;;2.19;64.86;102035.84;5031769;28;20052;-58
2022/03/04 08:46:23;;;;;;;34.70;21.23;;;;;;;2.25;64.38;102041.63;5034995;28;20429;-58
2022/03/04 08:48:48;;;;;;;37.70;21.63;;;;;;;2.31;64.44;102039.63;5034351;28;20068;-57
2022/03/04 08:51:13;;;;;;;40.37;22.20;;;;;;;2.38;63.64;102041.03;5034227;28;20412;-57
2022/03/04 08:53:39;;;;;;;34.63;22.10;;;;;;;2.44;63.71;102048.56;5038584;28;20110;-58
2022/03/04 08:56:04;;;;;;;34.60;21.50;;;;;;;2.50;63.75;102045.63;5027884;28;20079;-57
2022/03/04 08:58:30;;;;;;;38.73;22.00;;;;;;;2.60;63.30;102045.13;5040053;28;20589;-57
2022/03/04 09:00:55;;;;;;;34.70;20.93;;;;;;;2.69;63.05;102060.38;5034039;28;20029;-58
2022/03/04 09:03:20;;;;;;;38.83;21.63;;;;;;;2.75;62.83;102049.59;5041975;28;20480;-57
2022/03/04 09:05:46;;;;;;;36.70;20.97;;;;;;;2.86;63.35;102045.56;5034340;28;20075;-58
2022/03/04 09:08:11;;;;;;;36.33;20.93;;;;;;;2.93;62.64;102052.19;5033635;28;20029;-58
2022/03/04 09:10:36;;;;;;;35.53;20.23;;;;;;;3.01;62.36;102044.75;5033608;28;20107;-57
2022/03/04 09:13:01;;;;;;;39.17;21.23;;;;;;;3.10;61.31;102043.41;5043622;28;20051;-58
2022/03/04 09:15:27;;;;;;;34.13;20.57;;;;;;;3.16;61.03;102047.47;5033059;28;20033;-58
2022/03/04 09:17:52;;;;;;;34.93;20.80;;;;;;;3.22;60.77;102047.16;5038386;28;20087;-57
2022/03/04 09:20:19;;;;;;;35.43;21.57;;;;;;;3.27;60.74;102039.88;5028302;28;20033;-58
2022/03/04 09:22:47;;;;;;;35.10;21.40;;;;;;;3.33;60.19;102036.06;5035627;28;20035;-58
2022/03/04 09:25:13;;;;;;;37.50;20.87;;;;;;;3.39;60.19;102037.53;5039272;28;20044;-58
2022/03/04 09:27:39;;;;;;;36.57;20.17;;;;;;;3.47;58.90;102032.69;5030306;28;20529;-58
2022/03/04 09:30:05;;;;;;;30.93;19.70;;;;;;;3.52;59.51;102035.03;5030527;28;20057;-57
2022/03/04 09:32:31;;;;;;;32.20;19.87;;;;;;;3.59;59.53;102039.00;5039830;28;20499;-57
2022/03/04 09:34:56;;;;;;;36.83;20.67;;;;;;;3.66;58.41;102035.13;5039815;28;20391;-58
2022/03/04 09:37:21;;;;;;;34.13;20.83;;;;;;;3.69;58.57;102029.69;5040600;28;20040;-58
2022/03/04 09:39:46;;;;;;;32.97;20.33;;;;;;;3.74;58.77;102022.41;5035561;28;20025;-58
2022/03/04 09:42:12;;;;;;;35.27;21.00;;;;;;;3.81;57.98;102027.31;5026795;28;20041;-58
2022/03/04 09:44:39;;;;;;;32.33;19.73;;;;;;;3.87;57.85;102026.97;5028581;28;20103;-58
2022/03/04 09:47:05;;;;;;;32.33;20.50;;;;;;;3.94;58.18;102027.47;5026742;28;20033;-57
2022/03/04 09:49:35;;;;;;;34.23;20.67;;;;;;;3.98;58.11;102018.47;5038441;28;20078;-57
2022/03/04 09:52:02;;;;;;;35.23;20.97;;;;;;;4.09;56.59;102025.72;5035519;28;20026;-58
2022/03/04 09:54:28;;;;;;;33.17;19.90;;;;;;;4.16;57.45;102027.88;5035219;28;20033;-58
2022/03/04 09:56:55;;;;;;;38.03;21.67;;;;;;;4.28;56.17;102030.72;5038765;28;20055;-57
2022/03/04 09:59:20;;;;;;;37.53;21.43;;;;;;;4.37;56.63;102027.56;5032864;28;20021;-58
2022/03/04 10:01:47;;;;;;;34.57;22.03;;;;;;;4.43;56.75;102034.22;5026805;28;20029;-55
2022/03/04 10:04:12;;;;;;;39.27;21.60;;;;;;;4.50;56.68;102026.84;5032034;28;20048;-56
2022/03/04 10:06:38;;;;;;;39.30;21.70;;;;;;;4.60;56.44;102022.72;5033397;28;20038;-56
2022/03/04 10:09:04;;;;;;;36.80;21.37;;;;;;;4.62;56.51;102028.72;5032655;28;20029;-56
2022/03/04 10:11:32;;;;;;;34.57;20.87;;;;;;;4.68;56.42;102025.72;5033398;28;20035;-56
2022/03/04 10:14:04;;;;;;;34.67;21.90;;;;;;;4.71;56.82;102022.94;5033583;28;20508;-56
2022/03/04 10:16:33;;;;;;;33.17;20.70;;;;;;;4.77;56.35;102020.84;5024457;28;20032;-56
2022/03/04 10:19:19;;;;;;;31.93;20.80;;;;;;;4.89;56.32;102030.59;5027413;28;20034;-57
2022/03/04 10:22:04;;;;;;;35.43;21.40;;;;;;;4.89;56.41;102019.25;5021573;28;20034;-56
2022/03/04 10:24:38;;;;;;;33.93;20.80;;;;;;;5.05;56.52;102040.16;5018685;28;20033;-56
2022/03/04 10:27:10;;;;;;;33.20;20.30;;;;;;;5.18;55.94;102046.34;5030637;28;20057;-56
2022/03/04 10:29:37;;;;;;;37.57;21.30;;;;;;;5.30;56.25;102043.88;5024131;28;20044;-57
2022/03/04 10:32:05;;;;;;;31.20;21.33;;;;;;;5.39;55.02;102038.06;5029924;28;20033;-54
2022/03/04 10:34:42;;;;;;;33.33;21.13;;;;;;;5.36;56.07;102028.56;5024386;28;20033;-58
2022/03/04 10:37:08;;;;;;;34.67;20.77;;;;;;;5.44;55.81;102035.97;5031981;28;20445;-53
2022/03/04 10:39:33;;;;;;;31.58;20.58;;;;;;;5.58;55.41;102037.69;5029510;28;20041;-54
2022/03/04 10:41:58;;;;;;;33.90;20.40;;;;;;;5.64;54.74;102036.47;5032075;28;20622;-54
2022/03/04 10:44:29;;;;;;;33.67;21.05;;;;;;;5.66;54.50;102031.94;5037015;28;20029;-55
2022/03/04 10:46:56;;;;;;;31.90;19.98;;;;;;;5.73;53.96;102035.88;5027894;28;20043;-55
2022/03/04 10:49:26;;;;;;;32.88;20.27;;;;;;;5.74;53.11;102021.78;5026563;28;20025;-55
2022/03/04 10:52:05;;;;;;;30.52;19.20;;;;;;;5.84;53.60;102022.03;5021462;28;20457;-53
2022/03/04 10:54:30;;;;;;;34.72;19.58;;;;;;;6.02;52.79;102014.72;5032923;28;20046;-55
2022/03/04 10:56:56;;;;;;;33.53;19.58;;;;;;;6.08;53.61;102017.88;5025494;28;20246;-55
2022/03/04 10:59:24;;;;;;;29.00;18.70;;;;;;;6.08;53.04;102018.75;5030182;28;20381;-55
2022/03/04 11:01:51;;;;;;;31.63;19.48;;;;;;;6.15;53.34;102020.00;5031434;28;20059;-55
2022/03/04 11:04:18;;;;;;;30.67;19.65;;;;;;;6.25;52.69;102014.97;5027678;28;20062;-56
2022/03/04 11:06:45;;;;;;;31.58;19.90;;;;;;;6.35;50.76;102019.63;5024962;28;20049;-57
2022/03/04 11:09:12;;;;;;;33.97;19.42;;;;;;;6.37;51.90;102018.53;5025340;28;20029;-57